Grand Ruby — 3EIU3 — position and weather

sailwx.info

Track history (hours):
 
Tides and Currents Weather Stations Pressure Air Temp Water Temp Dewpoint Dewpoint Depression Visibility Wind Speed Wind Dir Waves Ship Positions

Grand Ruby

Last reported at 2015-Jul-22 08:04 UTC. Time now 2015-Aug-02 14:19 UTC.
Position N 26°13' W 079°20'.
Warning: this ship's position is 11 days out of date.

Length 200 m; draft 9.1 m.

Type: Cargo ship. MMSI: 372399000.

Date/timePositionNaut miles runAvg speedWind from/ knotsBaromVisibWave heightAir tempDewpointWater temp
2015-Jul-22 08:04N 26°13' W 079°20'1019.0
2015-Jul-22 07:33N 26°11' W 079°30'1918.9
2015-Jul-22 06:33N 26°07' W 079°51'1414.3
2015-Jul-22 05:33N 26°06' W 080°07'1 1.2
2015-Jul-22 04:32N 26°04' W 080°07'0 0.0
2015-Jul-22 03:32N 26°04' W 080°07'0 0.0
2015-Jul-22 02:32N 26°04' W 080°07'0 0.0
2015-Jul-22 01:32N 26°04' W 080°07'0 0.0
2015-Jul-22 00:32N 26°04' W 080°07'0 0.0
2015-Jul-21 23:32N 26°04' W 080°07'0 0.0
2015-Jul-21 22:32N 26°04' W 080°07'0 0.0
2015-Jul-21 21:32N 26°04' W 080°07'0 0.0
2015-Jul-21 20:32N 26°04' W 080°07'0 0.0
2015-Jul-21 19:29N 26°04' W 080°07'0 0.0
2015-Jul-21 18:32N 26°04' W 080°07'0 0.0
2015-Jul-21 17:32N 26°04' W 080°07'0 0.0
2015-Jul-21 16:32N 26°04' W 080°07'0 0.5
2015-Jul-21 15:33N 26°05' W 080°07'5 5.2
2015-Jul-21 14:33N 26°07' W 080°02'1514.7
2015-Jul-21 13:33N 26°20' W 079°54'1515.0
2015-Jul-21 12:33N 26°34' W 079°50'1615.5
2015-Jul-21 11:33N 26°50' W 079°50'1515.3
2015-Jul-21 10:33N 27°05' W 079°49'216 8.0
2015-Jul-20 07:30N 30°24' W 081°26'28115.5
2015-Jul-19 13:26N 33°23' W 077°11'1415.5
2015-Jul-19 12:33N 33°32' W 076°59'1616.4
2015-Jul-19 11:33N 33°43' W 076°44'2016.3
2015-Jul-19 10:20N 33°56' W 076°26'1416.9
2015-Jul-19 09:29N 34°06' W 076°13'1516.1
2015-Jul-19 08:33N 34°16' W 076°00'1616.2
2015-Jul-19 07:34N 34°28' W 075°46'1515.1
2015-Jul-19 06:33N 34°37' W 075°32'1413.7
2015-Jul-19 05:33N 34°45' W 075°19'1413.6
2015-Jul-19 04:30N 34°55' W 075°06'26615.7
2015-Jul-18 11:33N 38°54' W 072°41'1716.3
2015-Jul-18 10:32N 39°10' W 072°33'1515.5
2015-Jul-18 09:33N 39°23' W 072°23'1515.5
2015-Jul-18 08:33N 39°37' W 072°15'1615.8
2015-Jul-18 07:33N 39°51' W 072°06'1616.0
2015-Jul-18 06:33N 40°06' W 071°58'1615.8
2015-Jul-18 05:33N 40°20' W 071°49'1615.8
2015-Jul-18 04:33N 40°35' W 071°40'1615.7
2015-Jul-18 03:33N 40°48' W 071°31'1615.8
2015-Jul-18 02:33N 41°04' W 071°25'1616.2
2015-Jul-18 01:33N 41°20' W 071°25'10 9.9
2015-Jul-18 00:33N 41°29' W 071°21'8 7.9
2015-Jul-17 23:34N 41°37' W 071°24'0 0.1
2015-Jul-17 22:33N 41°37' W 071°24'0 0.0
2015-Jul-17 21:33N 41°37' W 071°24'0 0.0
2015-Jul-17 20:33N 41°37' W 071°24'0 0.0
2015-Jul-17 19:33N 41°37' W 071°24'0 0.0
2015-Jul-17 18:33N 41°37' W 071°24'0 0.0
2015-Jul-17 17:33N 41°37' W 071°24'0 0.0
2015-Jul-17 16:33N 41°37' W 071°24'0 0.0
2015-Jul-17 15:30N 41°37' W 071°24'1 0.7
2015-Jul-17 14:33N 41°36' W 071°24'7 7.0
2015-Jul-17 13:33N 41°30' W 071°21'8 8.4
2015-Jul-17 12:34N 41°21' W 071°21'10 9.6
2015-Jul-17 11:33N 41°12' W 071°21'9 9.3
2015-Jul-17 10:33N 41°05' W 071°13'1212.3
2015-Jul-17 09:34N 40°57' W 071°00'1211.9
2015-Jul-17 08:34N 40°49' W 070°48'1615.9
2015-Jul-17 07:33N 40°40' W 070°32'1615.6
2015-Jul-17 06:33N 40°33' W 070°13'1616.1
2015-Jul-17 05:33N 40°33' W 069°51'1616.1
2015-Jul-17 04:33N 40°34' W 069°30'1615.9
2015-Jul-17 03:33N 40°34' W 069°10'1716.3
2015-Jul-17 02:31N 40°31' W 068°48'  
Track history (hours):
 
Tides and Currents Weather Stations Pressure Air Temp Water Temp Dewpoint Dewpoint Depression Visibility Wind Speed Wind Dir Waves Ship Positions

Grand Ruby

Last reported at 2015-Jul-22 08:04 UTC. Time now 2015-Aug-02 14:19 UTC.
Position N 26°13' W 079°20'.
Warning: this ship's position is 11 days out of date.

Length 200 m; draft 9.1 m.

Type: Cargo ship. MMSI: 372399000.

Date/timePositionNaut miles runAvg speedWind from/ knotsBaromVisibWave heightAir tempDewpointWater temp
2015-Jul-22 08:04N 26°13' W 079°20'1019.0
2015-Jul-22 07:33N 26°11' W 079°30'1918.9
2015-Jul-22 06:33N 26°07' W 079°51'1414.3
2015-Jul-22 05:33N 26°06' W 080°07'1 1.2
2015-Jul-22 04:32N 26°04' W 080°07'0 0.0
2015-Jul-22 03:32N 26°04' W 080°07'0 0.0
2015-Jul-22 02:32N 26°04' W 080°07'0 0.0
2015-Jul-22 01:32N 26°04' W 080°07'0 0.0
2015-Jul-22 00:32N 26°04' W 080°07'0 0.0
2015-Jul-21 23:32N 26°04' W 080°07'0 0.0
2015-Jul-21 22:32N 26°04' W 080°07'0 0.0
2015-Jul-21 21:32N 26°04' W 080°07'0 0.0
2015-Jul-21 20:32N 26°04' W 080°07'0 0.0
2015-Jul-21 19:29N 26°04' W 080°07'0 0.0
2015-Jul-21 18:32N 26°04' W 080°07'0 0.0
2015-Jul-21 17:32N 26°04' W 080°07'0 0.0
2015-Jul-21 16:32N 26°04' W 080°07'0 0.5
2015-Jul-21 15:33N 26°05' W 080°07'5 5.2
2015-Jul-21 14:33N 26°07' W 080°02'1514.7
2015-Jul-21 13:33N 26°20' W 079°54'1515.0
2015-Jul-21 12:33N 26°34' W 079°50'1615.5
2015-Jul-21 11:33N 26°50' W 079°50'1515.3
2015-Jul-21 10:33N 27°05' W 079°49'216 8.0
2015-Jul-20 07:30N 30°24' W 081°26'28115.5
2015-Jul-19 13:26N 33°23' W 077°11'1415.5
2015-Jul-19 12:33N 33°32' W 076°59'1616.4
2015-Jul-19 11:33N 33°43' W 076°44'2016.3
2015-Jul-19 10:20N 33°56' W 076°26'1416.9
2015-Jul-19 09:29N 34°06' W 076°13'1516.1
2015-Jul-19 08:33N 34°16' W 076°00'1616.2
2015-Jul-19 07:34N 34°28' W 075°46'1515.1
2015-Jul-19 06:33N 34°37' W 075°32'1413.7
2015-Jul-19 05:33N 34°45' W 075°19'1413.6
2015-Jul-19 04:30N 34°55' W 075°06'26615.7
2015-Jul-18 11:33N 38°54' W 072°41'1716.3
2015-Jul-18 10:32N 39°10' W 072°33'1515.5
2015-Jul-18 09:33N 39°23' W 072°23'1515.5
2015-Jul-18 08:33N 39°37' W 072°15'1615.8
2015-Jul-18 07:33N 39°51' W 072°06'1616.0
2015-Jul-18 06:33N 40°06' W 071°58'1615.8
2015-Jul-18 05:33N 40°20' W 071°49'1615.8
2015-Jul-18 04:33N 40°35' W 071°40'1615.7
2015-Jul-18 03:33N 40°48' W 071°31'1615.8
2015-Jul-18 02:33N 41°04' W 071°25'1616.2
2015-Jul-18 01:33N 41°20' W 071°25'10 9.9
2015-Jul-18 00:33N 41°29' W 071°21'8 7.9
2015-Jul-17 23:34N 41°37' W 071°24'0 0.1
2015-Jul-17 22:33N 41°37' W 071°24'0 0.0
2015-Jul-17 21:33N 41°37' W 071°24'0 0.0
2015-Jul-17 20:33N 41°37' W 071°24'0 0.0
2015-Jul-17 19:33N 41°37' W 071°24'0 0.0
2015-Jul-17 18:33N 41°37' W 071°24'0 0.0
2015-Jul-17 17:33N 41°37' W 071°24'0 0.0
2015-Jul-17 16:33N 41°37' W 071°24'0 0.0
2015-Jul-17 15:30N 41°37' W 071°24'1 0.7
2015-Jul-17 14:33N 41°36' W 071°24'7 7.0
2015-Jul-17 13:33N 41°30' W 071°21'8 8.4
2015-Jul-17 12:34N 41°21' W 071°21'10 9.6
2015-Jul-17 11:33N 41°12' W 071°21'9 9.3
2015-Jul-17 10:33N 41°05' W 071°13'1212.3
2015-Jul-17 09:34N 40°57' W 071°00'1211.9
2015-Jul-17 08:34N 40°49' W 070°48'1615.9
2015-Jul-17 07:33N 40°40' W 070°32'1615.6
2015-Jul-17 06:33N 40°33' W 070°13'1616.1
2015-Jul-17 05:33N 40°33' W 069°51'1616.1
2015-Jul-17 04:33N 40°34' W 069°30'1615.9
2015-Jul-17 03:33N 40°34' W 069°10'1716.3
2015-Jul-17 02:31N 40°31' W 068°48'  

Dump ship's entire track history